Time;durP1;ratioP1;P1;durP2;ratioP2;P2;SDS_P1;SDS_P2;PMS_P1;PMS_P2;Temp;Humidity;BMP_temperature;BMP_pressure;BME280_temperature;BME280_humidity;BME280_pressure;Samples;Min_cycle;Max_cycle;Signal;HPM_P1;HPM_P2
2022/11/20 00:04:26;;;;;;;19.27;15.10;;;;;;;1.71;61.59;99514.13;10328790;28;20061;-79
2022/11/20 00:09:28;;;;;;;20.73;15.38;;;;;;;1.95;62.32;99510.78;10323121;28;21039;-80
2022/11/20 00:14:29;;;;;;;21.83;14.98;;;;;;;1.84;61.76;99506.88;10314109;28;20050;-79
2022/11/20 00:19:31;;;;;;;20.48;15.18;;;;;;;1.67;62.21;99506.53;10329644;28;20133;-79
2022/11/20 00:24:33;;;;;;;22.20;14.65;;;;;;;1.64;62.17;99507.50;10313696;28;20526;-79
2022/11/20 00:29:39;;;;;;;19.90;14.88;;;;;;;1.71;61.53;99506.41;10320739;28;20165;-79
2022/11/20 00:34:40;;;;;;;21.40;15.55;;;;;;;1.75;61.46;99512.28;10320369;28;20914;-79
2022/11/20 00:39:42;;;;;;;21.02;15.45;;;;;;;1.76;61.48;99514.00;10313983;28;20038;-79
2022/11/20 00:44:44;;;;;;;23.25;16.05;;;;;;;1.70;61.53;99506.47;10312239;28;20053;-79
2022/11/20 00:49:45;;;;;;;21.70;15.45;;;;;;;1.71;61.87;99500.41;10312920;28;20405;-79
2022/11/20 00:54:47;;;;;;;20.90;14.40;;;;;;;1.82;61.53;99493.19;10311477;28;20054;-79
2022/11/20 00:59:49;;;;;;;21.58;14.88;;;;;;;1.79;61.39;99490.69;10313256;28;20046;-79
2022/11/20 01:04:51;;;;;;;19.38;14.55;;;;;;;1.59;61.73;99500.78;10310847;28;20420;-79
2022/11/20 01:09:53;;;;;;;18.65;13.85;;;;;;;1.51;61.78;99495.84;10312368;28;20658;-79
2022/11/20 01:14:54;;;;;;;21.90;14.93;;;;;;;1.51;61.83;99502.72;10312277;28;20075;-79
2022/11/20 01:19:56;;;;;;;20.20;14.77;;;;;;;1.62;61.88;99511.84;10319964;28;20046;-79
2022/11/20 01:24:58;;;;;;;20.15;15.05;;;;;;;1.74;61.45;99508.03;10320196;28;20065;-78
2022/11/20 01:29:59;;;;;;;21.00;14.45;;;;;;;1.36;61.21;99510.03;10312518;28;20042;-79
2022/11/20 01:35:02;;;;;;;20.27;15.23;;;;;;;1.32;62.08;99507.59;10313184;28;20058;-79
2022/11/20 01:40:04;;;;;;;21.00;14.82;;;;;;;1.37;61.51;99500.56;10316917;28;20977;-79
2022/11/20 01:45:43;;;;;;;21.25;15.07;;;;;;;1.32;61.19;99498.13;10327897;28;20051;-79
2022/11/20 01:50:45;;;;;;;19.40;14.20;;;;;;;1.36;61.98;99493.72;10311278;28;20423;-79
2022/11/20 01:55:54;;;;;;;22.92;16.02;;;;;;;1.45;61.55;99492.63;10326947;28;20169;-78
2022/11/20 02:00:56;;;;;;;21.23;15.13;;;;;;;1.45;61.89;99492.63;10312318;28;20493;-79
2022/11/20 02:06:12;;;;;;;22.33;15.40;;;;;;;1.49;61.52;99489.06;10318594;28;20503;-79
2022/11/20 02:11:54;;;;;;;22.02;15.93;;;;;;;1.31;61.76;99491.31;10310447;28;20054;-79
2022/11/20 02:16:56;;;;;;;26.48;15.75;;;;;;;1.37;62.15;99490.28;10310263;28;21073;-79
2022/11/20 02:22:28;;;;;;;21.83;15.98;;;;;;;1.31;62.11;99488.72;10318360;28;20519;-79
2022/11/20 02:27:30;;;;;;;23.50;16.48;;;;;;;1.41;62.23;99480.72;10308159;28;20061;-79
2022/11/20 02:32:34;;;;;;;22.95;16.30;;;;;;;1.60;62.50;99480.13;10310803;28;20428;-79
2022/11/20 02:37:40;;;;;;;25.25;17.40;;;;;;;1.75;61.78;99471.06;10312485;28;20049;-79
2022/11/20 02:42:41;;;;;;;27.45;17.65;;;;;;;1.56;61.54;99475.97;10317408;28;20061;-79
2022/11/20 02:47:43;;;;;;;23.90;16.05;;;;;;;1.58;61.76;99473.31;10318928;28;20058;-79
2022/11/20 02:52:45;;;;;;;24.25;15.85;;;;;;;1.50;62.01;99473.56;10316126;28;20050;-79
2022/11/20 02:57:46;;;;;;;22.33;16.40;;;;;;;1.63;61.93;99482.59;10317942;28;20061;-78
2022/11/20 03:02:48;;;;;;;23.30;16.00;;;;;;;1.55;61.79;99463.94;10334905;28;20488;-79
2022/11/20 03:07:50;;;;;;;24.13;16.48;;;;;;;1.61;62.13;99471.50;10323475;28;20051;-79
2022/11/20 03:12:55;;;;;;;25.38;16.98;;;;;;;1.86;62.56;99450.94;10323511;28;20061;-79
2022/11/20 03:17:57;;;;;;;28.35;18.13;;;;;;;1.93;62.53;99449.88;10321844;28;20061;-79
2022/11/20 03:22:58;;;;;;;23.55;16.10;;;;;;;1.85;61.79;99451.81;10321909;28;20050;-79
2022/11/20 03:28:00;;;;;;;25.95;16.77;;;;;;;1.77;61.58;99451.22;10328966;28;20069;-78
2022/11/20 03:33:01;;;;;;;27.65;17.77;;;;;;;1.82;62.32;99455.38;10321782;28;20879;-79
2022/11/20 03:38:03;;;;;;;25.05;16.83;;;;;;;1.70;61.82;99453.19;10321428;28;20492;-79
2022/11/20 03:43:05;;;;;;;25.20;16.63;;;;;;;1.67;61.72;99462.72;10321295;28;20065;-79
2022/11/20 03:48:06;;;;;;;25.75;17.00;;;;;;;1.57;62.42;99451.00;10338004;28;20073;-79
2022/11/20 03:53:08;;;;;;;27.17;17.00;;;;;;;1.57;62.35;99446.72;10321380;28;20063;-79
2022/11/20 03:58:10;;;;;;;25.42;16.77;;;;;;;1.79;62.15;99442.56;10320074;28;20046;-80
2022/11/20 04:03:11;;;;;;;26.30;17.05;;;;;;;1.79;62.06;99446.84;10318504;28;20578;-79
2022/11/20 04:08:13;;;;;;;22.42;16.10;;;;;;;1.78;61.72;99455.50;10317343;28;20042;-79
2022/11/20 04:13:15;;;;;;;25.25;17.33;;;;;;;1.76;61.69;99457.28;10313641;28;20427;-79
2022/11/20 04:18:17;;;;;;;24.58;16.58;;;;;;;1.84;62.26;99447.56;10322145;28;20050;-79
2022/11/20 04:23:18;;;;;;;25.25;17.20;;;;;;;1.77;61.69;99443.50;10314845;28;20512;-79
2022/11/20 04:28:26;;;;;;;27.27;17.90;;;;;;;1.64;61.86;99442.22;10314373;28;20085;-79
2022/11/20 04:33:27;;;;;;;29.00;18.67;;;;;;;1.56;61.77;99439.88;10313168;28;20422;-79
2022/11/20 04:38:34;;;;;;;31.70;19.77;;;;;;;1.46;62.60;99442.78;10314474;28;20051;-79
2022/11/20 04:43:36;;;;;;;30.33;18.98;;;;;;;1.54;62.74;99443.38;10312642;28;20050;-79
2022/11/20 04:48:38;;;;;;;31.50;20.17;;;;;;;1.55;62.48;99442.47;10314583;28;20050;-79
2022/11/20 04:53:39;;;;;;;33.58;19.52;;;;;;;1.74;62.67;99443.59;10312345;28;20058;-79
2022/11/20 04:58:41;;;;;;;28.77;18.58;;;;;;;1.59;62.47;99444.06;10312669;28;20492;-80
2022/11/20 05:03:44;;;;;;;30.00;19.05;;;;;;;1.78;62.49;99440.88;10312307;28;20053;-80
2022/11/20 05:08:46;;;;;;;33.75;20.38;;;;;;;1.62;63.01;99434.53;10328916;28;20042;-79
2022/11/20 05:13:49;;;;;;;32.92;19.65;;;;;;;1.61;62.98;99427.69;10311652;28;20137;-80
2022/11/20 05:18:53;;;;;;;31.77;19.10;;;;;;;1.65;63.17;99428.41;10320544;28;20046;-80
2022/11/20 05:23:54;;;;;;;30.45;20.25;;;;;;;1.75;62.89;99419.50;10312063;28;20535;-80
2022/11/20 05:28:56;;;;;;;31.95;18.90;;;;;;;1.62;62.83;99416.50;10313702;28;20050;-80
2022/11/20 05:33:57;;;;;;;31.80;20.45;;;;;;;1.58;63.17;99412.34;10310497;28;20050;-80
2022/11/20 05:38:59;;;;;;;30.67;19.67;;;;;;;1.72;63.35;99410.16;10313088;28;20042;-79
2022/11/20 05:44:02;;;;;;;37.20;21.90;;;;;;;1.78;62.84;99411.69;10311785;28;20189;-81
2022/11/20 05:49:04;;;;;;;38.85;21.75;;;;;;;1.56;62.84;99402.94;10327211;28;20065;-80
2022/11/20 05:54:06;;;;;;;39.00;22.98;;;;;;;1.55;63.33;99409.84;10319116;28;20439;-80
2022/11/20 05:59:08;;;;;;;37.72;21.10;;;;;;;1.55;63.13;99408.97;10319102;28;20046;-80
2022/11/20 06:04:09;;;;;;;34.28;21.67;;;;;;;1.50;63.31;99403.16;10310709;28;20046;-80
2022/11/20 06:09:11;;;;;;;34.47;20.77;;;;;;;1.66;63.59;99399.19;10311507;28;20061;-79
2022/11/20 06:14:12;;;;;;;43.15;23.10;;;;;;;1.77;63.33;99400.53;10318071;28;20065;-80
2022/11/20 06:19:15;;;;;;;38.70;22.10;;;;;;;1.83;63.13;99407.19;10318760;28;20496;-79
2022/11/20 06:24:17;;;;;;;39.05;23.23;;;;;;;1.89;63.53;99407.84;10316889;28;20058;-80
2022/11/20 06:29:18;;;;;;;42.03;23.85;;;;;;;1.88;63.99;99405.31;10327372;28;20050;-80
2022/11/20 06:34:21;;;;;;;38.50;22.45;;;;;;;1.76;63.48;99400.56;10317246;28;20050;-80
2022/11/20 06:39:22;;;;;;;46.08;25.48;;;;;;;1.73;63.61;99408.38;10334968;28;20053;-80
2022/11/20 06:44:25;;;;;;;45.03;24.85;;;;;;;1.77;63.32;99408.25;10319261;28;20050;-79
2022/11/20 06:49:27;;;;;;;45.97;25.42;;;;;;;1.79;63.76;99411.63;10318206;28;20061;-79
2022/11/20 06:54:28;;;;;;;47.70;25.92;;;;;;;1.73;63.55;99422.13;10323792;28;20066;-80
2022/11/20 06:59:30;;;;;;;46.30;25.08;;;;;;;1.66;63.95;99435.28;10333654;28;20053;-79
2022/11/20 07:04:32;;;;;;;41.13;24.13;;;;;;;1.76;63.89;99431.50;10316729;28;20464;-80
2022/11/20 07:09:34;;;;;;;46.60;24.95;;;;;;;1.80;63.63;99433.09;10325266;28;20060;-80
2022/11/20 07:14:35;;;;;;;48.80;24.65;;;;;;;1.88;63.94;99437.13;10316794;28;20424;-79
2022/11/20 07:19:37;;;;;;;40.20;23.25;;;;;;;1.85;63.40;99436.34;10322737;28;20817;-79
2022/11/20 07:24:39;;;;;;;47.03;25.50;;;;;;;1.93;63.98;99442.13;10316275;28;20054;-80
2022/11/20 07:29:46;;;;;;;50.97;26.85;;;;;;;2.10;64.05;99439.81;10315838;28;20762;-80
2022/11/20 07:34:48;;;;;;;47.47;26.75;;;;;;;2.04;64.06;99440.88;10316586;28;20054;-80
2022/11/20 07:39:49;;;;;;;43.78;25.58;;;;;;;2.09;64.30;99443.31;10315299;28;20042;-80
2022/11/20 07:44:51;;;;;;;51.13;26.33;;;;;;;2.23;64.32;99447.09;10317886;28;20069;-80
2022/11/20 07:49:53;;;;;;;53.70;29.55;;;;;;;2.28;64.08;99453.84;10317015;28;20582;-80
2022/11/20 07:54:55;;;;;;;45.47;26.20;;;;;;;2.37;64.18;99456.13;10314436;28;20076;-80
2022/11/20 07:59:56;;;;;;;51.53;27.90;;;;;;;2.34;64.13;99461.41;10314413;28;20523;-80
2022/11/20 08:04:58;;;;;;;46.33;26.40;;;;;;;2.37;64.37;99467.28;10314985;28;20233;-80
2022/11/20 08:09:59;;;;;;;50.00;27.42;;;;;;;2.47;64.13;99466.06;10314958;28;20039;-80
2022/11/20 08:15:01;;;;;;;47.15;27.63;;;;;;;2.40;64.11;99464.59;10320408;28;20500;-80
2022/11/20 08:20:03;;;;;;;49.42;27.38;;;;;;;2.52;64.15;99469.31;10314043;28;20504;-80
2022/11/20 08:25:06;;;;;;;47.63;26.55;;;;;;;2.60;64.02;99464.75;10313685;28;20046;-81
2022/11/20 08:30:08;;;;;;;47.92;27.02;;;;;;;2.73;63.94;99467.75;10312606;28;20046;-81
2022/11/20 08:35:10;;;;;;;56.58;29.58;;;;;;;2.59;63.71;99463.06;10318142;28;20077;-81
2022/11/20 08:40:17;;;;;;;51.03;27.98;;;;;;;2.63;63.95;99462.06;10313628;28;20582;-79
2022/11/20 08:45:20;;;;;;;55.72;30.45;;;;;;;2.81;64.10;99476.91;10311528;28;20046;-80
2022/11/20 08:50:22;;;;;;;63.70;31.95;;;;;;;2.84;64.17;99474.22;10321922;28;20050;-80
2022/11/20 08:55:25;;;;;;;54.90;29.67;;;;;;;2.84;63.89;99474.22;10308029;28;20046;-80
2022/11/20 09:00:27;;;;;;;53.53;29.13;;;;;;;2.89;63.20;99466.28;10307977;28;20408;-80
2022/11/20 09:05:29;;;;;;;50.85;28.30;;;;;;;3.05;63.59;99468.25;10313539;28;20526;-80
2022/11/20 09:10:32;;;;;;;53.60;28.50;;;;;;;3.22;63.69;99465.06;10317470;28;20092;-80
2022/11/20 09:15:35;;;;;;;49.15;26.65;;;;;;;3.26;63.60;99465.78;10325836;28;20050;-80
2022/11/20 09:20:40;;;;;;;53.45;28.70;;;;;;;3.44;63.86;99465.94;10307718;28;20049;-80
2022/11/20 09:25:52;;;;;;;51.65;26.63;;;;;;;3.56;63.74;99459.44;10325109;28;20894;-81
2022/11/20 09:30:58;;;;;;;46.30;26.15;;;;;;;3.60;63.48;99463.63;10321818;28;20991;-80
2022/11/20 09:36:03;;;;;;;58.38;27.77;;;;;;;3.74;63.45;99461.34;10316825;28;20058;-80
2022/11/20 09:41:32;;;;;;;52.28;27.05;;;;;;;3.76;63.37;99465.53;10296334;28;20054;-80
2022/11/20 09:46:48;;;;;;;50.25;27.35;;;;;;;3.72;63.80;99465.72;10304458;28;20401;-80
2022/11/20 09:52:36;;;;;;;52.05;25.90;;;;;;;3.73;63.15;99467.41;10320547;28;20069;-80
2022/11/20 09:57:42;;;;;;;47.78;25.80;;;;;;;3.74;63.79;99476.84;10313554;28;20753;-80
2022/11/20 10:03:00;;;;;;;48.20;25.40;;;;;;;4.01;63.40;99472.31;10323184;28;20046;-80
2022/11/20 10:08:23;;;;;;;54.08;27.63;;;;;;;3.97;63.39;99460.41;10322151;28;20141;-80
2022/11/20 10:13:40;;;;;;;50.30;26.83;;;;;;;4.20;63.51;99453.41;10330178;28;20054;-80
2022/11/20 10:19:04;;;;;;;48.13;25.48;;;;;;;4.32;63.12;99446.88;10318960;28;20416;-79
2022/11/20 10:24:41;;;;;;;49.95;26.42;;;;;;;4.41;62.68;99426.63;10324134;28;20058;-79
2022/11/20 10:30:02;;;;;;;47.38;25.27;;;;;;;4.35;62.68;99426.88;10322657;28;20051;-79
2022/11/20 10:35:05;;;;;;;45.15;24.70;;;;;;;4.35;63.24;99426.88;10322553;28;20050;-79
2022/11/20 10:40:26;;;;;;;44.83;24.35;;;;;;;4.47;63.02;99425.53;10317413;28;20050;-80
2022/11/20 10:46:03;;;;;;;45.10;24.30;;;;;;;4.40;63.35;99419.78;10328865;28;20050;-79
2022/11/20 10:51:29;;;;;;;45.03;24.27;;;;;;;4.56;63.49;99420.78;10322055;28;20141;-79
2022/11/20 10:56:46;;;;;;;44.67;23.33;;;;;;;4.92;63.00;99402.78;10313597;28;20065;-79
2022/11/20 11:01:52;;;;;;;37.22;21.20;;;;;;;4.91;62.91;99413.19;10310810;28;20046;-80
2022/11/20 11:07:21;;;;;;;33.58;20.50;;;;;;;4.73;63.21;99401.94;10310054;28;20062;-78
2022/11/20 11:12:27;;;;;;;31.67;19.25;;;;;;;5.13;62.51;99391.44;10305162;28;20642;-78
2022/11/20 11:17:33;;;;;;;33.28;19.48;;;;;;;5.64;61.71;99372.56;10327505;28;20066;-78
2022/11/20 11:22:45;;;;;;;30.33;18.23;;;;;;;5.82;61.19;99376.03;10313707;28;20046;-78
2022/11/20 11:27:51;;;;;;;30.52;18.02;;;;;;;5.75;60.95;99378.09;10310851;28;20507;-78
2022/11/20 11:33:20;;;;;;;34.60;20.27;;;;;;;5.70;61.29;99366.22;10313208;28;20424;-78
2022/11/20 11:38:36;;;;;;;28.73;18.33;;;;;;;6.02;60.29;99352.53;10318754;28;20061;-78
2022/11/20 11:48:58;;;;;;;23.52;15.63;;;;;;;5.65;60.82;99356.09;10310592;28;20054;-78
2022/11/20 11:54:03;;;;;;;21.50;13.95;;;;;;;5.59;60.94;99348.63;10309252;28;20181;-78
2022/11/20 11:59:12;;;;;;;23.00;14.90;;;;;;;5.75;61.03;99343.50;10318269;28;20057;-78
2022/11/20 12:04:13;;;;;;;23.23;15.32;;;;;;;5.91;60.87;99334.03;10309809;28;20057;-77
2022/11/20 12:09:18;;;;;;;25.75;15.75;;;;;;;5.99;60.69;99324.13;10316465;28;20057;-77
2022/11/20 12:14:39;;;;;;;24.77;15.70;;;;;;;5.70;60.93;99306.56;10317566;28;20058;-77
2022/11/20 12:19:42;;;;;;;25.35;15.50;;;;;;;6.06;60.59;99302.94;10324653;28;20042;-77
2022/11/20 12:25:02;;;;;;;24.65;15.52;;;;;;;5.96;60.56;99296.56;10310348;28;20050;-77
2022/11/20 12:30:21;;;;;;;22.25;14.90;;;;;;;5.93;60.69;99304.50;10305784;28;20046;-77
2022/11/20 12:36:02;;;;;;;23.55;14.30;;;;;;;5.88;61.10;99295.28;10307428;28;20925;-76
2022/11/20 12:47:13;;;;;;;23.63;15.85;;;;;;;5.97;61.35;99285.28;10310201;28;20535;-77
2022/11/20 12:52:39;;;;;;;33.75;20.25;;;;;;;5.49;62.12;99285.16;10297412;28;20064;-78
2022/11/20 12:57:53;;;;;;;44.85;23.30;;;;;;;5.27;63.57;99274.97;10305604;28;21028;-77
2022/11/20 13:03:06;;;;;;;45.97;23.33;;;;;;;5.18;64.38;99270.25;10325474;28;20046;-77
2022/11/20 13:08:16;;;;;;;43.63;23.00;;;;;;;5.20;64.33;99267.56;10308983;28;20500;-77
2022/11/20 13:13:47;;;;;;;44.58;23.50;;;;;;;5.26;64.60;99264.69;10311284;28;20054;-77
2022/11/20 13:18:49;;;;;;;47.50;24.17;;;;;;;5.09;64.46;99265.50;10303268;28;20046;-77
2022/11/20 13:23:50;;;;;;;44.92;23.38;;;;;;;5.02;65.05;99265.88;10316799;28;20057;-77
2022/11/20 13:29:15;;;;;;;46.58;23.92;;;;;;;5.13;65.57;99255.81;10325333;28;20058;-77
2022/11/20 13:34:25;;;;;;;52.05;25.08;;;;;;;5.02;65.59;99247.72;10309858;28;20054;-77
2022/11/20 13:39:35;;;;;;;47.90;24.33;;;;;;;4.91;65.77;99242.19;10313069;28;20090;-77
2022/11/20 13:44:51;;;;;;;45.45;23.90;;;;;;;4.74;66.44;99232.63;10312326;28;20057;-77
2022/11/20 13:49:54;;;;;;;44.67;23.08;;;;;;;4.85;65.96;99235.56;10316978;28;20042;-80
2022/11/20 13:55:15;;;;;;;42.35;22.70;;;;;;;4.90;65.93;99222.41;10311728;28;20999;-79
2022/11/20 14:00:23;;;;;;;45.30;25.17;;;;;;;5.03;65.96;99208.78;10310954;28;20488;-78
2022/11/20 14:05:24;;;;;;;47.00;23.60;;;;;;;5.00;66.03;99197.72;10308699;28;21303;-78
2022/11/20 14:10:28;;;;;;;48.05;24.48;;;;;;;5.09;65.40;99197.25;10325787;28;20073;-79
2022/11/20 14:15:34;;;;;;;47.58;24.83;;;;;;;5.12;65.88;99194.53;10312378;28;20046;-78
2022/11/20 14:20:41;;;;;;;41.20;23.88;;;;;;;5.08;65.92;99186.06;10311205;28;20420;-79
2022/11/20 14:25:44;;;;;;;55.20;27.08;;;;;;;4.94;65.58;99179.88;10309695;28;20053;-78
2022/11/20 14:30:48;;;;;;;56.85;27.05;;;;;;;4.89;65.99;99177.50;10312099;28;20069;-78
2022/11/20 14:35:59;;;;;;;55.58;27.27;;;;;;;4.86;66.42;99174.25;10325918;28;20046;-78
2022/11/20 14:41:20;;;;;;;65.28;29.08;;;;;;;4.76;67.18;99167.81;10335550;28;20057;-78
2022/11/20 14:46:22;;;;;;;44.90;24.63;;;;;;;4.80;66.72;99154.63;10317356;28;20428;-78
2022/11/20 14:51:41;;;;;;;61.38;28.40;;;;;;;4.79;67.07;99152.13;10316740;28;20049;-78
2022/11/20 14:56:57;;;;;;;65.78;29.05;;;;;;;4.75;67.34;99145.41;10317821;28;20094;-78
2022/11/20 15:02:01;;;;;;;66.88;28.85;;;;;;;4.69;67.31;99142.22;10318027;28;20761;-78
2022/11/20 15:07:03;;;;;;;69.68;30.70;;;;;;;4.57;67.47;99129.88;10333475;28;20065;-78
2022/11/20 15:12:05;;;;;;;75.78;31.45;;;;;;;4.51;67.94;99132.75;10332733;28;20102;-78
2022/11/20 15:17:09;;;;;;;98.95;33.28;;;;;;;4.61;68.05;99123.63;10325149;28;20046;-79
2022/11/20 15:22:18;;;;;;;67.35;28.80;;;;;;;4.67;67.77;99123.34;10331765;28;20590;-78
2022/11/20 15:27:20;;;;;;;67.00;29.90;;;;;;;4.73;67.51;99106.66;10332968;28;20051;-78
2022/11/20 15:32:22;;;;;;;60.13;27.65;;;;;;;4.78;67.11;99109.00;10318200;28;20046;-78
2022/11/20 15:37:24;;;;;;;61.67;29.05;;;;;;;4.63;67.58;99105.41;10323850;28;20053;-78
2022/11/20 15:42:30;;;;;;;66.55;29.33;;;;;;;4.59;67.46;99094.38;10315759;28;20050;-78
2022/11/20 15:47:35;;;;;;;76.10;30.77;;;;;;;4.65;67.80;99088.06;10315393;28;20501;-78
2022/11/20 15:52:36;;;;;;;68.18;29.35;;;;;;;4.64;67.96;99087.22;10315646;28;20808;-78
2022/11/20 15:57:42;;;;;;;60.15;27.95;;;;;;;4.74;67.71;99086.78;10315902;28;20058;-78
2022/11/20 16:02:44;;;;;;;60.10;27.23;;;;;;;4.77;67.83;99090.03;10312397;28;20061;-78
2022/11/20 16:07:46;;;;;;;65.55;30.67;;;;;;;4.72;67.75;99091.19;10314973;28;20057;-78
2022/11/20 16:18:10;;;;;;;117.85;39.72;;;;;;;4.61;68.77;99092.56;10316184;28;20712;-78
2022/11/20 16:23:12;;;;;;;92.00;34.00;;;;;;;4.52;68.86;99079.19;10329695;28;20456;-78
2022/11/20 16:28:14;;;;;;;61.88;28.48;;;;;;;4.66;68.46;99067.25;10330902;28;20065;-78
2022/11/20 16:33:19;;;;;;;68.20;29.63;;;;;;;4.76;68.45;99040.91;10313324;28;20531;-78
2022/11/20 16:38:21;;;;;;;53.40;25.65;;;;;;;4.72;68.22;99031.63;10314815;28;20062;-79
2022/11/20 16:43:23;;;;;;;57.28;27.25;;;;;;;4.61;68.58;99019.19;10319853;28;20050;-78
2022/11/20 16:48:24;;;;;;;55.28;26.45;;;;;;;4.70;68.49;99019.56;10309626;28;20057;-78
2022/11/20 16:53:26;;;;;;;66.50;28.35;;;;;;;4.85;68.37;99012.78;10310611;28;20053;-80
2022/11/20 16:58:28;;;;;;;54.42;26.15;;;;;;;4.96;68.39;98994.94;10312367;28;20062;-80
2022/11/20 17:03:30;;;;;;;119.15;36.13;;;;;;;4.88;68.43;98993.66;10312945;28;20050;-79
2022/11/20 17:08:32;;;;;;;104.03;34.47;;;;;;;4.76;68.81;98991.69;10311590;28;20058;-80
2022/11/20 17:13:35;;;;;;;114.53;39.17;;;;;;;4.68;68.94;98990.31;10313845;28;20049;-79
2022/11/20 17:18:43;;;;;;;111.53;37.97;;;;;;;4.62;69.23;98982.00;10310390;28;20051;-79
2022/11/20 17:23:46;;;;;;;108.00;39.00;;;;;;;4.64;69.09;98969.81;10310235;28;20061;-80
2022/11/20 17:28:55;;;;;;;79.78;33.45;;;;;;;4.45;69.50;98961.34;10306255;28;20113;-81
2022/11/20 17:34:01;;;;;;;79.82;33.38;;;;;;;4.64;69.58;98960.31;10308454;28;20053;-80
2022/11/20 17:39:05;;;;;;;94.78;37.38;;;;;;;4.68;69.42;98951.47;10304498;28;20961;-81
2022/11/20 17:44:09;;;;;;;70.90;31.60;;;;;;;4.66;69.52;98940.34;10307747;28;20711;-80
2022/11/20 17:49:12;;;;;;;80.30;34.30;;;;;;;4.72;69.47;98938.38;10305431;28;20137;-81
2022/11/20 17:54:15;;;;;;;96.68;36.42;;;;;;;4.76;69.47;98925.16;10300167;28;20047;-81
2022/11/20 17:59:32;;;;;;;80.90;34.08;;;;;;;4.84;69.38;98923.00;10307847;28;20054;-81
2022/11/20 18:04:36;;;;;;;78.03;33.08;;;;;;;4.83;69.38;98923.94;10308788;28;20487;-81
2022/11/20 18:09:45;;;;;;;96.53;35.83;;;;;;;4.96;69.44;98914.63;10313316;28;20065;-80
2022/11/20 18:14:47;;;;;;;83.57;33.03;;;;;;;4.87;69.13;98903.88;10311643;28;20046;-80
2022/11/20 18:19:53;;;;;;;57.53;26.80;;;;;;;4.86;69.14;98892.69;10316982;28;20054;-81
2022/11/20 18:25:17;;;;;;;76.47;31.88;;;;;;;4.87;69.26;98886.59;10316952;28;20058;-81
2022/11/20 18:30:27;;;;;;;61.05;27.25;;;;;;;4.74;69.35;98875.19;10309057;28;20977;-81
2022/11/20 18:35:36;;;;;;;79.35;31.83;;;;;;;4.69;70.02;98874.63;10314478;28;20069;-80
2022/11/20 18:40:51;;;;;;;83.13;38.25;;;;;;;4.74;69.72;98861.44;10313091;28;20081;-81
2022/11/20 18:46:03;;;;;;;71.00;34.53;;;;;;;4.75;70.44;98860.50;10315722;28;20060;-81
2022/11/20 18:51:06;;;;;;;45.67;24.90;;;;;;;4.76;70.10;98850.06;10315905;28;20047;-81
2022/11/20 18:56:09;;;;;;;21.83;11.65;;;;;;;4.90;70.87;98828.63;10318922;28;20098;-81
2022/11/20 19:01:17;;;;;;;18.90;11.10;;;;;;;5.03;71.11;98811.47;10318046;28;20046;-82
2022/11/20 19:06:25;;;;;;;10.32;6.43;;;;;;;5.09;71.09;98808.53;10319120;28;20058;-82
2022/11/20 19:11:27;;;;;;;8.18;4.13;;;;;;;5.13;70.97;98797.06;10318995;28;20051;-81
2022/11/20 19:16:29;;;;;;;7.38;5.20;;;;;;;5.25;70.67;98783.44;10317320;28;20050;-81
2022/11/20 19:21:31;;;;;;;5.28;4.10;;;;;;;5.23;70.69;98780.09;10316701;28;20058;-81
2022/11/20 19:26:35;;;;;;;4.65;2.65;;;;;;;5.39;70.38;98779.13;10316752;28;20523;-81
2022/11/20 19:31:37;;;;;;;5.05;3.00;;;;;;;5.38;70.36;98774.06;10317130;28;20104;-81
2022/11/20 19:36:40;;;;;;;4.45;2.60;;;;;;;5.36;70.26;98768.13;10314607;28;20058;-81
2022/11/20 19:41:45;;;;;;;3.95;2.03;;;;;;;5.47;70.15;98771.75;10317256;28;20146;-82
2022/11/20 19:46:47;;;;;;;3.35;1.80;;;;;;;5.43;70.28;98767.66;10316396;28;20054;-82
2022/11/20 19:51:50;;;;;;;4.13;2.22;;;;;;;5.40;70.25;98757.50;10318469;28;20054;-82
2022/11/20 19:56:51;;;;;;;3.25;1.77;;;;;;;5.46;70.37;98756.28;10314425;28;20067;-81
2022/11/20 20:01:53;;;;;;;6.40;3.33;;;;;;;5.50;70.29;98745.66;10316259;28;20065;-82
2022/11/20 20:06:55;;;;;;;6.35;2.50;;;;;;;5.63;69.86;98763.09;10315835;28;20141;-82
2022/11/20 20:11:56;;;;;;;3.95;1.85;;;;;;;5.59;70.12;98753.84;10318944;28;20061;-84
2022/11/20 20:16:58;;;;;;;4.88;1.80;;;;;;;5.67;69.76;98749.88;10314473;28;20511;-80
2022/11/20 20:22:00;;;;;;;3.17;1.90;;;;;;;5.63;69.90;98755.31;10331979;28;20061;-80
2022/11/20 20:27:02;;;;;;;4.20;2.15;;;;;;;5.63;69.83;98763.94;10322543;28;20509;-80
2022/11/20 20:32:04;;;;;;;4.18;1.70;;;;;;;5.62;69.74;98758.81;10314109;28;20074;-80
2022/11/20 20:37:06;;;;;;;3.67;2.00;;;;;;;5.54;69.64;98760.13;10314221;28;20054;-81
2022/11/20 20:42:08;;;;;;;5.45;1.98;;;;;;;5.47;69.76;98760.56;10314386;28;20085;-81
2022/11/20 20:47:09;;;;;;;4.88;1.73;;;;;;;5.46;70.02;98761.47;10313805;28;20503;-80
2022/11/20 20:52:11;;;;;;;3.15;1.63;;;;;;;5.48;69.84;98755.28;10323686;28;20061;-81
2022/11/20 20:57:12;;;;;;;5.53;2.35;;;;;;;5.43;69.91;98756.50;10312483;28;20058;-80
2022/11/20 21:02:14;;;;;;;7.03;1.70;;;;;;;5.59;69.62;98749.50;10313667;28;20050;-83
2022/11/20 21:07:16;;;;;;;4.63;1.60;;;;;;;5.65;69.50;98746.53;10329559;28;21109;-82
2022/11/20 21:12:18;;;;;;;4.70;1.60;;;;;;;5.58;69.50;98750.41;10311004;28;20141;-82
2022/11/20 21:17:20;;;;;;;5.10;1.63;;;;;;;5.53;69.61;98753.25;10313013;28;20062;-82
2022/11/20 21:22:25;;;;;;;4.63;1.90;;;;;;;5.55;69.37;98755.78;10304446;28;20046;-81
2022/11/20 21:27:39;;;;;;;4.38;1.80;;;;;;;5.48;69.83;98746.66;10309912;28;20086;-82
2022/11/20 21:32:41;;;;;;;3.75;1.50;;;;;;;5.59;69.32;98736.53;10307347;28;20058;-81
2022/11/20 21:37:42;;;;;;;4.55;1.90;;;;;;;5.58;69.31;98732.25;10307668;28;20424;-82
2022/11/20 21:42:46;;;;;;;8.90;1.80;;;;;;;5.62;69.20;98731.13;10306128;28;20046;-82
2022/11/20 21:47:49;;;;;;;4.60;2.10;;;;;;;5.70;68.92;98734.13;10307957;28;20543;-82
2022/11/20 21:52:51;;;;;;;4.43;1.65;;;;;;;5.66;68.83;98736.97;10308327;28;20325;-82
2022/11/20 21:57:53;;;;;;;6.13;1.63;;;;;;;5.54;68.77;98739.38;10326482;28;20054;-82
2022/11/20 22:02:55;;;;;;;5.40;1.60;;;;;;;5.50;68.44;98729.25;10310901;28;20046;-82
2022/11/20 22:07:56;;;;;;;5.40;2.00;;;;;;;5.50;68.30;98727.50;10312593;28;20054;-82
2022/11/20 22:18:21;;;;;;;7.82;1.70;;;;;;;5.55;67.76;98722.06;10310415;28;20939;-82
2022/11/20 22:23:23;;;;;;;6.68;1.50;;;;;;;5.50;67.69;98734.44;10327865;28;20054;-82
2022/11/20 22:28:24;;;;;;;5.13;1.70;;;;;;;5.27;67.76;98722.81;10312087;28;20050;-82
2022/11/20 22:33:27;;;;;;;6.68;1.65;;;;;;;5.16;67.91;98732.13;10311816;28;20390;-82
2022/11/20 22:38:30;;;;;;;6.40;1.70;;;;;;;5.11;68.03;98734.13;10328142;28;20058;-82
2022/11/20 22:43:40;;;;;;;6.63;1.58;;;;;;;5.02;68.12;98748.47;10326116;28;20108;-81
2022/11/20 22:48:48;;;;;;;6.88;1.80;;;;;;;5.08;67.81;98762.81;10309839;28;20054;-82
2022/11/20 22:53:50;;;;;;;7.75;1.55;;;;;;;5.07;67.78;98755.97;10313381;28;20054;-81
2022/11/20 22:58:52;;;;;;;7.07;1.63;;;;;;;4.96;67.83;98755.75;10318350;28;20050;-81
2022/11/20 23:03:57;;;;;;;5.60;1.80;;;;;;;5.02;67.86;98763.16;10317608;28;20051;-81
2022/11/20 23:08:59;;;;;;;5.55;1.48;;;;;;;4.98;67.72;98765.09;10317441;28;20069;-81
2022/11/20 23:14:04;;;;;;;6.47;1.27;;;;;;;4.99;67.89;98758.13;10317871;28;20050;-82
2022/11/20 23:19:09;;;;;;;5.30;1.73;;;;;;;4.98;67.90;98753.91;10333792;28;20058;-81
2022/11/20 23:24:11;;;;;;;4.40;1.58;;;;;;;4.96;67.43;98758.31;10317223;28;20050;-81
2022/11/20 23:29:12;;;;;;;7.28;1.85;;;;;;;4.88;67.64;98763.09;10317553;28;20153;-81
2022/11/20 23:34:14;;;;;;;8.32;2.30;;;;;;;4.93;67.62;98767.09;10333670;28;20058;-81
2022/11/20 23:39:16;;;;;;;8.98;2.30;;;;;;;4.97;67.47;98772.94;10317170;28;20053;-82
2022/11/20 23:44:17;;;;;;;10.05;2.20;;;;;;;4.92;67.64;98765.44;10332444;28;20057;-81
2022/11/20 23:49:19;;;;;;;6.55;1.98;;;;;;;5.03;67.27;98757.06;10317022;28;20085;-81
2022/11/20 23:54:21;;;;;;;11.30;3.58;;;;;;;5.04;67.42;98753.56;10317459;28;20061;-82